Time;durP1;ratioP1;P1;durP2;ratioP2;P2;SDS_P1;SDS_P2;PMS_P1;PMS_P2;Temp;Humidity;BMP_temperature;BMP_pressure;BME280_temperature;BME280_humidity;BME280_pressure;Samples;Min_cycle;Max_cycle;Signal;HPM_P1;HPM_P2
2024/02/02 00:02:21;;;;;;;;;;;5.50;99.90;;;;;;21156892;28;19926;-78
2024/02/02 00:12:22;;;;;;;;;;;5.20;99.90;;;;;;21149737;28;19923;-77
2024/02/02 00:22:24;;;;;;;;;;;5.00;99.90;;;;;;21140752;28;20371;-77
2024/02/02 00:32:25;;;;;;;;;;;4.90;99.90;;;;;;21132261;27;19930;-77
2024/02/02 00:42:26;;;;;;;;;;;4.60;99.90;;;;;;21131601;28;19916;-77
2024/02/02 00:52:26;;;;;;;;;;;4.40;99.90;;;;;;21143501;28;19966;-77
2024/02/02 01:02:27;;;;;;;;;;;4.40;99.90;;;;;;21138421;28;19912;-77
2024/02/02 01:12:28;;;;;;;;;;;4.20;99.90;;;;;;21150554;28;20325;-77
2024/02/02 01:22:31;;;;;;;;;;;3.60;99.90;;;;;;21129188;28;19911;-77
2024/02/02 01:32:32;;;;;;;;;;;3.70;99.90;;;;;;21141229;28;19916;-77
2024/02/02 01:42:33;;;;;;;;;;;3.50;99.90;;;;;;21131193;28;19919;-78
2024/02/02 01:52:33;;;;;;;;;;;3.30;99.90;;;;;;21141779;28;19927;-77
2024/02/02 02:02:34;;;;;;;;;;;3.00;99.90;;;;;;21150572;28;19916;-78
2024/02/02 02:12:35;;;;;;;;;;;3.10;99.90;;;;;;21155695;28;19922;-78
2024/02/02 02:22:35;;;;;;;;;;;3.30;99.90;;;;;;21137275;28;19919;-78
2024/02/02 02:32:36;;;;;;;;;;;3.50;99.90;;;;;;21140464;28;19915;-78
2024/02/02 02:42:37;;;;;;;;;;;3.90;99.90;;;;;;21136636;28;19912;-78
2024/02/02 02:52:38;;;;;;;;;;;4.00;99.90;;;;;;21149166;28;20292;-78
2024/02/02 03:02:38;;;;;;;;;;;4.20;99.90;;;;;;21153542;27;20370;-77
2024/02/02 03:12:39;;;;;;;;;;;4.50;99.90;;;;;;21150050;28;20021;-78
2024/02/02 03:22:40;;;;;;;;;;;4.50;99.90;;;;;;21143157;28;19912;-78
2024/02/02 03:32:41;;;;;;;;;;;4.50;99.90;;;;;;21157873;28;19977;-78
2024/02/02 03:42:42;;;;;;;;;;;4.30;99.90;;;;;;21153811;28;19918;-78
2024/02/02 03:52:42;;;;;;;;;;;4.00;99.90;;;;;;21166934;28;19945;-78
2024/02/02 04:02:47;;;;;;;;;;;3.80;99.90;;;;;;21158064;28;19912;-78
2024/02/02 04:12:47;;;;;;;;;;;3.90;99.90;;;;;;21161590;28;20006;-78
2024/02/02 04:22:48;;;;;;;;;;;4.10;99.90;;;;;;21142423;27;20361;-78
2024/02/02 04:32:49;;;;;;;;;;;4.30;99.90;;;;;;21139745;28;19920;-78
2024/02/02 04:42:49;;;;;;;;;;;4.50;99.90;;;;;;21137741;28;20253;-78
2024/02/02 04:52:50;;;;;;;;;;;4.50;99.90;;;;;;21137006;28;19915;-78
2024/02/02 05:02:51;;;;;;;;;;;4.30;99.90;;;;;;21151550;28;19912;-76
2024/02/02 05:12:51;;;;;;;;;;;4.50;99.90;;;;;;21147790;28;19947;-78
2024/02/02 05:22:52;;;;;;;;;;;4.60;99.90;;;;;;21152008;28;19991;-78
2024/02/02 05:32:53;;;;;;;;;;;4.60;99.90;;;;;;21163119;28;19916;-76
2024/02/02 05:42:53;;;;;;;;;;;4.60;99.90;;;;;;21166242;28;19919;-78
2024/02/02 05:52:54;;;;;;;;;;;4.80;99.90;;;;;;21156574;28;19916;-77
2024/02/02 06:02:55;;;;;;;;;;;4.70;99.90;;;;;;21160266;28;19911;-77
2024/02/02 06:12:55;;;;;;;;;;;4.70;99.90;;;;;;21158808;28;19916;-77
2024/02/02 06:22:56;;;;;;;;;;;4.70;99.90;;;;;;21155414;28;19911;-78
2024/02/02 06:32:59;;;;;;;;;;;4.80;99.90;;;;;;21165548;28;19923;-77
2024/02/02 06:43:00;;;;;;;;;;;4.80;99.90;;;;;;21158472;28;19912;-77
2024/02/02 06:53:02;;;;;;;;;;;4.80;99.90;;;;;;21160292;27;19923;-78
2024/02/02 07:03:03;;;;;;;;;;;4.80;99.90;;;;;;21158412;28;19912;-77
2024/02/02 07:13:04;;;;;;;;;;;4.70;99.90;;;;;;21154825;28;19916;-77
2024/02/02 07:23:04;;;;;;;;;;;4.80;99.90;;;;;;21155496;28;20409;-77
2024/02/02 07:33:24;;;;;;;;;;;4.80;99.90;;;;;;21165285;28;20376;-77
2024/02/02 07:43:24;;;;;;;;;;;4.90;99.90;;;;;;21175913;28;19912;-77
2024/02/02 07:53:25;;;;;;;;;;;5.60;99.90;;;;;;21173355;28;19961;-78
2024/02/02 08:03:26;;;;;;;;;;;5.70;99.90;;;;;;21179088;28;19912;-77
2024/02/02 08:13:26;;;;;;;;;;;5.70;99.90;;;;;;21188623;28;20004;-79
2024/02/02 08:23:27;;;;;;;;;;;5.60;99.90;;;;;;21195351;28;20326;-78
2024/02/02 08:33:28;;;;;;;;;;;5.60;99.90;;;;;;21187284;28;19927;-78
2024/02/02 08:43:29;;;;;;;;;;;5.60;99.90;;;;;;21183494;28;19911;-79
2024/02/02 08:53:29;;;;;;;;;;;5.70;99.90;;;;;;21177015;28;20271;-80
2024/02/02 09:03:43;;;;;;;;;;;5.80;99.90;;;;;;21183794;28;19911;-78
2024/02/02 09:13:47;;;;;;;;;;;5.90;99.90;;;;;;21169627;28;19916;-80
2024/02/02 09:23:49;;;;;;;;;;;6.00;99.90;;;;;;21167053;28;20412;-78
2024/02/02 09:33:50;;;;;;;;;;;6.20;99.90;;;;;;21173959;27;19920;-79
2024/02/02 09:44:00;;;;;;;;;;;6.20;99.90;;;;;;21154171;28;19942;-79
2024/02/02 09:54:03;;;;;;;;;;;6.30;99.90;;;;;;21130721;28;20382;-79
2024/02/02 10:04:06;;;;;;;;;;;6.40;99.90;;;;;;21174638;28;19983;-79
2024/02/02 10:14:18;;;;;;;;;;;6.50;99.90;;;;;;21180405;28;19926;-79
2024/02/02 10:24:24;;;;;;;;;;;6.80;99.90;;;;;;21169675;28;20484;-79
2024/02/02 10:34:43;;;;;;;;;;;7.20;99.90;;;;;;21153293;28;19926;-79
2024/02/02 10:44:44;;;;;;;;;;;7.40;99.90;;;;;;21135376;28;20440;-79
2024/02/02 10:55:07;;;;;;;;;;;7.50;99.90;;;;;;21156378;28;19916;-77
2024/02/02 11:05:26;;;;;;;;;;;7.70;99.90;;;;;;21158069;28;20387;-79
2024/02/02 11:15:36;;;;;;;;;;;7.80;99.90;;;;;;21143424;28;19918;-79
2024/02/02 11:26:00;;;;;;;;;;;8.00;99.90;;;;;;21130914;28;19916;-79
2024/02/02 11:36:23;;;;;;;;;;;8.00;99.90;;;;;;21168928;28;19916;-79
2024/02/02 11:46:26;;;;;;;;;;;8.30;99.90;;;;;;21151706;28;19916;-78
2024/02/02 11:56:30;;;;;;;;;;;8.50;99.90;;;;;;21157452;28;19919;-79
2024/02/02 12:06:35;;;;;;;;;;;8.70;99.90;;;;;;21142038;28;19916;-79
2024/02/02 12:16:35;;;;;;;;;;;9.80;99.90;;;;;;21162883;28;19919;-78
2024/02/02 12:26:36;;;;;;;;;;;10.00;99.90;;;;;;21150112;28;19951;-77
2024/02/02 12:36:37;;;;;;;;;;;10.00;99.90;;;;;;21166893;28;19954;-78
2024/02/02 12:46:42;;;;;;;;;;;10.20;99.90;;;;;;21153065;28;19922;-78
2024/02/02 12:56:42;;;;;;;;;;;10.50;99.90;;;;;;21155236;28;19947;-77
2024/02/02 13:06:45;;;;;;;;;;;10.70;99.90;;;;;;21148956;28;20378;-78
2024/02/02 13:16:46;;;;;;;;;;;10.80;99.90;;;;;;21148597;28;19954;-77
2024/02/02 13:26:50;;;;;;;;;;;11.20;99.90;;;;;;21137539;28;19916;-82
2024/02/02 13:37:02;;;;;;;;;;;11.60;99.90;;;;;;21164818;28;20003;-80
2024/02/02 13:47:03;;;;;;;;;;;11.60;99.90;;;;;;21144091;28;19915;-81
2024/02/02 13:57:04;;;;;;;;;;;11.90;99.90;;;;;;21151116;28;19935;-80
2024/02/02 14:07:14;;;;;;;;;;;12.00;99.90;;;;;;21148878;28;19916;-82
2024/02/02 14:17:15;;;;;;;;;;;11.70;99.90;;;;;;21137120;28;19912;-80
2024/02/02 14:27:15;;;;;;;;;;;11.90;99.90;;;;;;21141327;28;19993;-80
2024/02/02 14:37:16;;;;;;;;;;;12.10;99.90;;;;;;21135903;28;19912;-81
2024/02/02 14:47:17;;;;;;;;;;;11.60;99.90;;;;;;21174952;28;19970;-81
2024/02/02 14:57:18;;;;;;;;;;;11.00;99.90;;;;;;21170391;28;19963;-81
2024/02/02 15:07:21;;;;;;;;;;;10.90;99.90;;;;;;21172827;28;19919;-80
2024/02/02 15:17:22;;;;;;;;;;;10.70;99.90;;;;;;21175767;28;20431;-79
2024/02/02 15:27:22;;;;;;;;;;;10.40;99.90;;;;;;21168989;28;19916;-79
2024/02/02 15:37:25;;;;;;;;;;;10.10;99.90;;;;;;21178754;28;19956;-79
2024/02/02 15:47:28;;;;;;;;;;;10.10;99.90;;;;;;21183423;28;19920;-82
2024/02/02 15:57:29;;;;;;;;;;;9.90;99.90;;;;;;21164587;27;20378;-82
2024/02/02 16:07:30;;;;;;;;;;;9.70;99.90;;;;;;21167374;28;19922;-81
2024/02/02 16:17:32;;;;;;;;;;;9.60;99.90;;;;;;21142934;28;19995;-81
2024/02/02 16:27:34;;;;;;;;;;;9.10;99.90;;;;;;21136669;28;19920;-78
2024/02/02 16:37:38;;;;;;;;;;;8.60;99.90;;;;;;21127814;28;20302;-79
2024/02/02 16:47:39;;;;;;;;;;;8.30;99.90;;;;;;21129760;28;19924;-81
2024/02/02 16:57:40;;;;;;;;;;;7.60;99.90;;;;;;21132345;28;19919;-80
2024/02/02 17:07:40;;;;;;;;;;;7.10;99.90;;;;;;21138010;28;20010;-79
2024/02/02 17:17:42;;;;;;;;;;;6.90;99.90;;;;;;21173431;28;19919;-79
2024/02/02 17:27:43;;;;;;;;;;;6.30;99.90;;;;;;21166954;28;19916;-82
2024/02/02 17:37:43;;;;;;;;;;;6.30;99.90;;;;;;21169749;28;20374;-81
2024/02/02 17:47:44;;;;;;;;;;;6.30;99.90;;;;;;21163692;28;20373;-80
2024/02/02 17:57:45;;;;;;;;;;;5.80;99.90;;;;;;21162336;28;19912;-80
2024/02/02 18:07:45;;;;;;;;;;;5.90;99.90;;;;;;21156836;28;19927;-80
2024/02/02 18:17:46;;;;;;;;;;;5.50;99.90;;;;;;21176407;28;20322;-80
2024/02/02 18:27:47;;;;;;;;;;;5.20;99.90;;;;;;21183612;28;20365;-80
2024/02/02 18:37:48;;;;;;;;;;;4.70;99.90;;;;;;21160726;28;20287;-81
2024/02/02 18:47:49;;;;;;;;;;;4.40;99.90;;;;;;21176390;28;19922;-81
2024/02/02 18:57:50;;;;;;;;;;;4.70;99.90;;;;;;21162648;28;19912;-80
2024/02/02 19:07:50;;;;;;;;;;;4.40;99.90;;;;;;21165314;28;19926;-80
2024/02/02 19:17:51;;;;;;;;;;;4.30;99.90;;;;;;21162007;28;20374;-81
2024/02/02 19:27:52;;;;;;;;;;;4.10;99.90;;;;;;21187887;28;20336;-79
2024/02/02 19:37:54;;;;;;;;;;;4.00;99.90;;;;;;21177437;28;20331;-81
2024/02/02 19:47:56;;;;;;;;;;;3.90;99.90;;;;;;21167249;28;19961;-78
2024/02/02 19:57:56;;;;;;;;;;;3.70;99.90;;;;;;21171309;28;19919;-80
2024/02/02 20:07:57;;;;;;;;;;;3.60;99.90;;;;;;21150052;28;19924;-80
2024/02/02 20:17:58;;;;;;;;;;;3.70;99.90;;;;;;21155306;28;19920;-79
2024/02/02 20:27:59;;;;;;;;;;;3.60;99.90;;;;;;21168512;28;20006;-81
2024/02/02 20:38:00;;;;;;;;;;;3.20;99.90;;;;;;21143581;28;19951;-81
2024/02/02 20:48:02;;;;;;;;;;;3.40;99.90;;;;;;21131763;28;19920;-81
2024/02/02 20:58:03;;;;;;;;;;;3.40;99.90;;;;;;21154052;28;19943;-81
2024/02/02 21:08:04;;;;;;;;;;;3.20;99.90;;;;;;21135677;28;20298;-78
2024/02/02 21:18:14;;;;;;;;;;;3.00;99.90;;;;;;21112233;28;19912;-79
2024/02/02 21:28:16;;;;;;;;;;;2.90;99.90;;;;;;21156278;28;19952;-80
2024/02/02 21:38:17;;;;;;;;;;;2.70;99.90;;;;;;21128606;28;19912;-80
2024/02/02 21:48:18;;;;;;;;;;;2.70;99.90;;;;;;21149806;28;19966;-81
2024/02/02 21:58:18;;;;;;;;;;;2.80;99.90;;;;;;21157433;28;19920;-83
2024/02/02 22:08:19;;;;;;;;;;;3.00;99.90;;;;;;21153080;28;20346;-80
2024/02/02 22:18:20;;;;;;;;;;;2.70;99.90;;;;;;21192001;28;19937;-80
2024/02/02 22:28:21;;;;;;;;;;;3.00;99.90;;;;;;21157834;28;19920;-81
2024/02/02 22:38:21;;;;;;;;;;;3.00;99.90;;;;;;21157934;28;19922;-81
2024/02/02 22:48:22;;;;;;;;;;;2.90;99.90;;;;;;21159816;28;20322;-81
2024/02/02 22:58:23;;;;;;;;;;;2.90;99.90;;;;;;21169808;28;20405;-80
2024/02/02 23:08:24;;;;;;;;;;;2.90;99.90;;;;;;21174142;28;19915;-81
2024/02/02 23:18:26;;;;;;;;;;;2.70;99.90;;;;;;21175641;28;19912;-81
2024/02/02 23:28:27;;;;;;;;;;;2.80;99.90;;;;;;21173435;28;19923;-81
2024/02/02 23:38:28;;;;;;;;;;;2.80;99.90;;;;;;21171794;28;19920;-82
2024/02/02 23:48:29;;;;;;;;;;;2.70;99.90;;;;;;21173090;28;19966;-80
2024/02/02 23:58:29;;;;;;;;;;;2.60;99.90;;;;;;21170885;28;19935;-82
